sensor_id;sensor_type;location;lat;lon;timestamp;pressure;altitude;pressure_sealevel;temperature;humidity
29385;BME280;16367;48.736;9.218;2023-09-18T00:01:37;-23807.06;;;20.30;93.19
29385;BME280;16367;48.736;9.218;2023-09-18T00:03:41;-23807.06;;;20.30;93.08
29385;BME280;16367;48.736;9.218;2023-09-18T00:05:42;-23804.88;;;20.23;93.51
29385;BME280;16367;48.736;9.218;2023-09-18T00:07:45;-23805.66;;;20.25;93.87
29385;BME280;16367;48.736;9.218;2023-09-18T00:09:48;-23802.69;;;20.16;94.39
29385;BME280;16367;48.736;9.218;2023-09-18T00:11:51;-23801.91;;;20.13;94.24
29385;BME280;16367;48.736;9.218;2023-09-18T00:13:54;-23802.69;;;20.16;94.23
29385;BME280;16367;48.736;9.218;2023-09-18T00:15:57;-23804.09;;;20.20;94.20
29385;BME280;16367;48.736;9.218;2023-09-18T00:18:01;-23803.78;;;20.19;94.47
29385;BME280;16367;48.736;9.218;2023-09-18T00:20:05;-23803.00;;;20.17;94.31
29385;BME280;16367;48.736;9.218;2023-09-18T00:22:08;-23802.38;;;20.15;94.25
29385;BME280;16367;48.736;9.218;2023-09-18T00:24:11;-23803.63;;;20.19;94.26
29385;BME280;16367;48.736;9.218;2023-09-18T00:26:13;-23806.75;;;20.29;92.93
29385;BME280;16367;48.736;9.218;2023-09-18T00:28:18;-23805.50;;;20.25;93.71
29385;BME280;16367;48.736;9.218;2023-09-18T00:30:20;-23808.19;;;20.33;92.97
29385;BME280;16367;48.736;9.218;2023-09-18T00:32:23;-23808.31;;;20.34;92.24
29385;BME280;16367;48.736;9.218;2023-09-18T00:34:26;-23806.44;;;20.28;93.63
29385;BME280;16367;48.736;9.218;2023-09-18T00:36:28;-23807.06;;;20.30;93.50
29385;BME280;16367;48.736;9.218;2023-09-18T00:38:30;-23805.81;;;20.26;93.64
29385;BME280;16367;48.736;9.218;2023-09-18T00:40:33;-23808.03;;;20.33;92.54
29385;BME280;16367;48.736;9.218;2023-09-18T00:42:35;-23804.88;;;20.23;94.15
29385;BME280;16367;48.736;9.218;2023-09-18T00:44:39;-23804.88;;;20.23;94.78
29385;BME280;16367;48.736;9.218;2023-09-18T00:46:43;-23807.38;;;20.31;93.30
29385;BME280;16367;48.736;9.218;2023-09-18T00:48:46;-23805.19;;;20.24;93.71
29385;BME280;16367;48.736;9.218;2023-09-18T00:50:49;-23805.50;;;20.25;94.06
29385;BME280;16367;48.736;9.218;2023-09-18T00:52:52;-23808.50;;;20.34;92.79
29385;BME280;16367;48.736;9.218;2023-09-18T00:54:54;-23807.69;;;20.32;93.69
29385;BME280;16367;48.736;9.218;2023-09-18T00:56:57;-23807.84;;;20.32;93.68
29385;BME280;16367;48.736;9.218;2023-09-18T00:59:01;-23810.84;;;20.42;92.25
29385;BME280;16367;48.736;9.218;2023-09-18T01:01:05;-23814.91;;;20.55;91.07
29385;BME280;16367;48.736;9.218;2023-09-18T01:03:07;-23812.25;;;20.46;91.83
29385;BME280;16367;48.736;9.218;2023-09-18T01:05:11;-23811.78;;;20.45;92.31
29385;BME280;16367;48.736;9.218;2023-09-18T01:07:12;-23813.19;;;20.49;91.50
29385;BME280;16367;48.736;9.218;2023-09-18T01:09:17;-23816.81;;;20.61;90.13
29385;BME280;16367;48.736;9.218;2023-09-18T01:11:26;-23819.63;;;20.70;89.21
29385;BME280;16367;48.736;9.218;2023-09-18T01:13:37;-23818.06;;;20.65;89.42
29385;BME280;16367;48.736;9.218;2023-09-18T01:15:44;-23824.00;;;20.84;87.39
29385;BME280;16367;48.736;9.218;2023-09-18T01:17:50;-23827.31;;;20.95;86.71
29385;BME280;16367;48.736;9.218;2023-09-18T01:19:53;-23831.53;;;21.08;85.37
29385;BME280;16367;48.736;9.218;2023-09-18T01:21:56;-23835.00;;;21.19;84.36
29385;BME280;16367;48.736;9.218;2023-09-18T01:23:59;-23833.56;;;21.15;84.65
29385;BME280;16367;48.736;9.218;2023-09-18T01:26:02;-23833.13;;;21.13;85.16
29385;BME280;16367;48.736;9.218;2023-09-18T01:28:05;-23827.16;;;20.94;86.37
29385;BME280;16367;48.736;9.218;2023-09-18T01:30:07;-23822.44;;;20.79;87.42
29385;BME280;16367;48.736;9.218;2023-09-18T01:32:10;-23824.31;;;20.85;87.04
29385;BME280;16367;48.736;9.218;2023-09-18T01:34:12;-23827.16;;;20.94;86.75
29385;BME280;16367;48.736;9.218;2023-09-18T01:36:16;-23826.53;;;20.92;86.45
29385;BME280;16367;48.736;9.218;2023-09-18T01:38:20;-23826.69;;;20.93;86.52
29385;BME280;16367;48.736;9.218;2023-09-18T01:40:25;-23825.91;;;20.90;86.83
29385;BME280;16367;48.736;9.218;2023-09-18T01:42:29;-23829.34;;;21.01;86.06
29385;BME280;16367;48.736;9.218;2023-09-18T01:44:32;-23830.44;;;21.05;85.85
29385;BME280;16367;48.736;9.218;2023-09-18T01:46:35;-23829.03;;;21.00;86.08
29385;BME280;16367;48.736;9.218;2023-09-18T01:48:37;-23828.41;;;20.98;86.75
29385;BME280;16367;48.736;9.218;2023-09-18T01:50:40;-23829.34;;;21.01;86.15
29385;BME280;16367;48.736;9.218;2023-09-18T01:52:43;-23856.94;;;21.90;78.17
29385;BME280;16367;48.736;9.218;2023-09-18T01:54:45;-23858.34;;;21.94;77.47
29385;BME280;16367;48.736;9.218;2023-09-18T01:56:49;-23864.13;;;22.13;75.11
29385;BME280;16367;48.736;9.218;2023-09-18T01:58:52;-23863.03;;;22.09;75.46
29385;BME280;16367;48.736;9.218;2023-09-18T02:00:55;-23859.28;;;21.97;76.15
29385;BME280;16367;48.736;9.218;2023-09-18T02:02:59;-23855.69;;;21.86;77.28
29385;BME280;16367;48.736;9.218;2023-09-18T02:05:19;-23851.13;;;21.71;77.73
29385;BME280;16367;48.736;9.218;2023-09-18T02:07:22;-23845.19;;;21.52;82.48
29385;BME280;16367;48.736;9.218;2023-09-18T02:09:26;-23823.84;;;20.84;95.37
29385;BME280;16367;48.736;9.218;2023-09-18T02:11:28;-23814.13;;;20.52;100.00
29385;BME280;16367;48.736;9.218;2023-09-18T02:13:31;-23804.88;;;20.23;100.00
29385;BME280;16367;48.736;9.218;2023-09-18T02:15:37;-23802.06;;;20.14;100.00
29385;BME280;16367;48.736;9.218;2023-09-18T02:17:40;-23803.94;;;20.20;100.00
29385;BME280;16367;48.736;9.218;2023-09-18T02:19:43;-23801.56;;;20.12;100.00
29385;BME280;16367;48.736;9.218;2023-09-18T02:21:46;-23792.94;;;19.84;100.00
29385;BME280;16367;48.736;9.218;2023-09-18T02:23:49;-23777.09;;;19.33;100.00
29385;BME280;16367;48.736;9.218;2023-09-18T02:25:55;-23778.97;;;19.40;100.00
29385;BME280;16367;48.736;9.218;2023-09-18T02:27:58;-23769.38;;;19.09;100.00
29385;BME280;16367;48.736;9.218;2023-09-18T02:30:03;-23773.47;;;19.22;100.00
29385;BME280;16367;48.736;9.218;2023-09-18T02:32:06;-23769.38;;;19.09;100.00
29385;BME280;16367;48.736;9.218;2023-09-18T02:34:08;-23763.88;;;18.91;100.00
29385;BME280;16367;48.736;9.218;2023-09-18T02:36:11;-23762.00;;;18.85;100.00
29385;BME280;16367;48.736;9.218;2023-09-18T02:38:14;-23761.84;;;18.85;100.00
29385;BME280;16367;48.736;9.218;2023-09-18T02:40:17;-23763.41;;;18.90;100.00
29385;BME280;16367;48.736;9.218;2023-09-18T02:42:20;-23768.59;;;19.06;100.00
29385;BME280;16367;48.736;9.218;2023-09-18T02:44:22;-23770.81;;;19.13;100.00
29385;BME280;16367;48.736;9.218;2023-09-18T02:46:26;-23784.16;;;19.56;100.00
29385;BME280;16367;48.736;9.218;2023-09-18T02:48:29;-23796.09;;;19.94;100.00
29385;BME280;16367;48.736;9.218;2023-09-18T02:50:31;-23782.13;;;19.50;100.00
29385;BME280;16367;48.736;9.218;2023-09-18T02:52:34;-23764.03;;;18.92;100.00
29385;BME280;16367;48.736;9.218;2023-09-18T02:54:35;-23765.47;;;18.96;100.00
29385;BME280;16367;48.736;9.218;2023-09-18T02:56:38;-23765.31;;;18.96;100.00
29385;BME280;16367;48.736;9.218;2023-09-18T02:58:41;-23766.88;;;19.01;100.00
29385;BME280;16367;48.736;9.218;2023-09-18T03:00:44;-23768.59;;;19.06;100.00
29385;BME280;16367;48.736;9.218;2023-09-18T03:02:48;-23771.13;;;19.14;100.00
29385;BME280;16367;48.736;9.218;2023-09-18T03:04:51;-23775.66;;;19.29;100.00
29385;BME280;16367;48.736;9.218;2023-09-18T03:06:54;-23776.63;;;19.32;100.00
29385;BME280;16367;48.736;9.218;2023-09-18T03:08:56;-23775.50;;;19.28;100.00
29385;BME280;16367;48.736;9.218;2023-09-18T03:10:59;-23778.50;;;19.38;100.00
29385;BME280;16367;48.736;9.218;2023-09-18T03:13:01;-23781.34;;;19.47;100.00
29385;BME280;16367;48.736;9.218;2023-09-18T03:15:05;-23777.56;;;19.35;100.00
29385;BME280;16367;48.736;9.218;2023-09-18T03:17:08;-23779.28;;;19.41;100.00
29385;BME280;16367;48.736;9.218;2023-09-18T03:19:13;-23778.19;;;19.37;100.00
29385;BME280;16367;48.736;9.218;2023-09-18T03:21:16;-23775.50;;;19.28;100.00
29385;BME280;16367;48.736;9.218;2023-09-18T03:23:18;-23781.50;;;19.48;100.00
29385;BME280;16367;48.736;9.218;2023-09-18T03:25:21;-23779.13;;;19.40;100.00
29385;BME280;16367;48.736;9.218;2023-09-18T03:27:23;-23777.41;;;19.35;100.00
29385;BME280;16367;48.736;9.218;2023-09-18T03:29:30;-23771.59;;;19.16;100.00
29385;BME280;16367;48.736;9.218;2023-09-18T03:31:32;-23757.28;;;18.70;100.00
29385;BME280;16367;48.736;9.218;2023-09-18T03:33:35;-23759.00;;;18.76;100.00
29385;BME280;16367;48.736;9.218;2023-09-18T03:35:46;-23771.44;;;19.15;100.00
29385;BME280;16367;48.736;9.218;2023-09-18T03:37:51;-23778.81;;;19.39;100.00
29385;BME280;16367;48.736;9.218;2023-09-18T03:39:55;-23778.97;;;19.40;100.00
29385;BME280;16367;48.736;9.218;2023-09-18T03:41:58;-23774.25;;;19.24;100.00
29385;BME280;16367;48.736;9.218;2023-09-18T03:44:00;-23771.44;;;19.15;100.00
29385;BME280;16367;48.736;9.218;2023-09-18T03:46:04;-23769.69;;;19.10;100.00
29385;BME280;16367;48.736;9.218;2023-09-18T03:48:07;-23766.56;;;19.00;100.00
29385;BME280;16367;48.736;9.218;2023-09-18T03:50:11;-23769.22;;;19.08;100.00
29385;BME280;16367;48.736;9.218;2023-09-18T03:52:14;-23777.25;;;19.34;100.00
29385;BME280;16367;48.736;9.218;2023-09-18T03:54:17;-23767.34;;;19.02;100.00
29385;BME280;16367;48.736;9.218;2023-09-18T03:56:19;-23763.09;;;18.89;100.00
29385;BME280;16367;48.736;9.218;2023-09-18T03:58:23;-23770.16;;;19.11;100.00
29385;BME280;16367;48.736;9.218;2023-09-18T04:00:26;-23770.81;;;19.13;100.00
29385;BME280;16367;48.736;9.218;2023-09-18T04:02:29;-23773.63;;;19.22;100.00
29385;BME280;16367;48.736;9.218;2023-09-18T04:04:32;-23776.13;;;19.30;100.00
29385;BME280;16367;48.736;9.218;2023-09-18T04:06:40;-23776.94;;;19.33;100.00
29385;BME280;16367;48.736;9.218;2023-09-18T04:08:45;-23774.88;;;19.26;100.00
29385;BME280;16367;48.736;9.218;2023-09-18T04:10:47;-23775.03;;;19.27;100.00
29385;BME280;16367;48.736;9.218;2023-09-18T04:12:51;-23778.81;;;19.39;100.00
29385;BME280;16367;48.736;9.218;2023-09-18T04:14:53;-23776.47;;;19.31;100.00
29385;BME280;16367;48.736;9.218;2023-09-18T04:16:56;-23775.81;;;19.29;100.00
29385;BME280;16367;48.736;9.218;2023-09-18T04:18:58;-23776.94;;;19.33;100.00
29385;BME280;16367;48.736;9.218;2023-09-18T04:21:01;-23779.13;;;19.40;100.00
29385;BME280;16367;48.736;9.218;2023-09-18T04:23:19;-23780.38;;;19.44;100.00
29385;BME280;16367;48.736;9.218;2023-09-18T04:25:23;-23783.22;;;19.53;100.00
29385;BME280;16367;48.736;9.218;2023-09-18T04:27:27;-23784.78;;;19.58;100.00
29385;BME280;16367;48.736;9.218;2023-09-18T04:29:30;-23783.84;;;19.55;100.00
29385;BME280;16367;48.736;9.218;2023-09-18T04:31:33;-23785.41;;;19.60;100.00
29385;BME280;16367;48.736;9.218;2023-09-18T04:33:35;-23783.22;;;19.53;100.00
29385;BME280;16367;48.736;9.218;2023-09-18T04:35:37;-23784.16;;;19.56;100.00
29385;BME280;16367;48.736;9.218;2023-09-18T04:37:40;-23790.28;;;19.76;100.00
29385;BME280;16367;48.736;9.218;2023-09-18T04:39:43;-23786.81;;;19.65;100.00
29385;BME280;16367;48.736;9.218;2023-09-18T04:41:47;-23785.88;;;19.62;100.00
29385;BME280;16367;48.736;9.218;2023-09-18T04:43:50;-23790.59;;;19.77;100.00
29385;BME280;16367;48.736;9.218;2023-09-18T04:45:56;-23794.19;;;19.88;98.72
29385;BME280;16367;48.736;9.218;2023-09-18T04:47:58;-23782.13;;;19.50;100.00
29385;BME280;16367;48.736;9.218;2023-09-18T04:50:01;-23779.13;;;19.40;100.00
29385;BME280;16367;48.736;9.218;2023-09-18T04:52:14;-23784.47;;;19.57;100.00
29385;BME280;16367;48.736;9.218;2023-09-18T04:54:16;-23780.38;;;19.44;100.00
29385;BME280;16367;48.736;9.218;2023-09-18T04:56:19;-23776.00;;;19.30;100.00
29385;BME280;16367;48.736;9.218;2023-09-18T04:58:23;-23770.00;;;19.11;100.00
29385;BME280;16367;48.736;9.218;2023-09-18T05:00:26;-23770.50;;;19.12;100.00
29385;BME280;16367;48.736;9.218;2023-09-18T05:02:31;-23768.91;;;19.07;100.00
29385;BME280;16367;48.736;9.218;2023-09-18T05:04:35;-23770.97;;;19.14;100.00
29385;BME280;16367;48.736;9.218;2023-09-18T05:06:38;-23779.28;;;19.41;100.00
29385;BME280;16367;48.736;9.218;2023-09-18T05:08:43;-23778.03;;;19.37;100.00
29385;BME280;16367;48.736;9.218;2023-09-18T05:10:46;-23777.56;;;19.35;100.00
29385;BME280;16367;48.736;9.218;2023-09-18T05:12:50;-23771.91;;;19.17;100.00
29385;BME280;16367;48.736;9.218;2023-09-18T05:15:01;-23765.94;;;18.98;100.00
29385;BME280;16367;48.736;9.218;2023-09-18T05:17:05;-23765.16;;;18.95;100.00
29385;BME280;16367;48.736;9.218;2023-09-18T05:19:08;-23766.25;;;18.99;100.00
29385;BME280;16367;48.736;9.218;2023-09-18T05:21:10;-23762.47;;;18.87;100.00
29385;BME280;16367;48.736;9.218;2023-09-18T05:23:13;-23758.06;;;18.73;100.00
29385;BME280;16367;48.736;9.218;2023-09-18T05:25:19;-23755.56;;;18.65;100.00
29385;BME280;16367;48.736;9.218;2023-09-18T05:27:23;-23751.47;;;18.51;100.00
29385;BME280;16367;48.736;9.218;2023-09-18T05:29:27;-23748.94;;;18.43;100.00
29385;BME280;16367;48.736;9.218;2023-09-18T05:31:31;-23750.22;;;18.47;100.00
29385;BME280;16367;48.736;9.218;2023-09-18T05:33:34;-23753.50;;;18.58;100.00
29385;BME280;16367;48.736;9.218;2023-09-18T05:35:40;-23756.81;;;18.69;100.00
29385;BME280;16367;48.736;9.218;2023-09-18T05:37:43;-23756.50;;;18.68;100.00
29385;BME280;16367;48.736;9.218;2023-09-18T05:39:46;-23761.06;;;18.82;100.00
29385;BME280;16367;48.736;9.218;2023-09-18T05:41:49;-23752.56;;;18.55;100.00
29385;BME280;16367;48.736;9.218;2023-09-18T05:43:51;-23745.97;;;18.34;100.00
29385;BME280;16367;48.736;9.218;2023-09-18T05:45:55;-23747.69;;;18.39;100.00
29385;BME280;16367;48.736;9.218;2023-09-18T05:47:59;-23748.94;;;18.43;100.00
29385;BME280;16367;48.736;9.218;2023-09-18T05:50:07;-23751.00;;;18.50;100.00
29385;BME280;16367;48.736;9.218;2023-09-18T05:52:10;-23751.94;;;18.53;100.00
29385;BME280;16367;48.736;9.218;2023-09-18T05:54:13;-23758.06;;;18.73;100.00
29385;BME280;16367;48.736;9.218;2023-09-18T05:56:16;-23762.47;;;18.87;100.00
29385;BME280;16367;48.736;9.218;2023-09-18T05:58:19;-23771.59;;;19.16;100.00
29385;BME280;16367;48.736;9.218;2023-09-18T06:00:26;-23762.78;;;18.88;100.00
29385;BME280;16367;48.736;9.218;2023-09-18T06:02:29;-23765.94;;;18.98;100.00
29385;BME280;16367;48.736;9.218;2023-09-18T06:04:33;-23766.56;;;19.00;100.00
29385;BME280;16367;48.736;9.218;2023-09-18T06:06:38;-23767.19;;;19.02;100.00
29385;BME280;16367;48.736;9.218;2023-09-18T06:08:41;-23770.34;;;19.12;100.00
29385;BME280;16367;48.736;9.218;2023-09-18T06:10:43;-23769.06;;;19.08;100.00
29385;BME280;16367;48.736;9.218;2023-09-18T06:12:46;-23769.38;;;19.09;100.00
29385;BME280;16367;48.736;9.218;2023-09-18T06:14:48;-23774.25;;;19.24;100.00
29385;BME280;16367;48.736;9.218;2023-09-18T06:16:51;-23770.81;;;19.13;100.00
29385;BME280;16367;48.736;9.218;2023-09-18T06:18:54;-23773.78;;;19.23;100.00
29385;BME280;16367;48.736;9.218;2023-09-18T06:20:58;-23770.97;;;19.14;100.00
29385;BME280;16367;48.736;9.218;2023-09-18T06:23:01;-23772.22;;;19.18;100.00
29385;BME280;16367;48.736;9.218;2023-09-18T06:25:05;-23773.16;;;19.21;100.00
29385;BME280;16367;48.736;9.218;2023-09-18T06:27:08;-23771.91;;;19.17;100.00
29385;BME280;16367;48.736;9.218;2023-09-18T06:29:10;-23772.84;;;19.20;100.00
29385;BME280;16367;48.736;9.218;2023-09-18T06:31:13;-23772.53;;;19.19;100.00
29385;BME280;16367;48.736;9.218;2023-09-18T06:33:15;-23769.69;;;19.10;100.00
29385;BME280;16367;48.736;9.218;2023-09-18T06:35:18;-23770.97;;;19.14;100.00
29385;BME280;16367;48.736;9.218;2023-09-18T06:37:23;-23771.13;;;19.14;100.00
29385;BME280;16367;48.736;9.218;2023-09-18T06:39:25;-23772.06;;;19.17;100.00
29385;BME280;16367;48.736;9.218;2023-09-18T06:41:28;-23772.69;;;19.19;100.00
29385;BME280;16367;48.736;9.218;2023-09-18T06:43:31;-23768.59;;;19.06;100.00
29385;BME280;16367;48.736;9.218;2023-09-18T06:45:33;-23768.13;;;19.05;100.00
29385;BME280;16367;48.736;9.218;2023-09-18T06:47:39;-23763.41;;;18.90;100.00
29385;BME280;16367;48.736;9.218;2023-09-18T06:49:42;-23764.50;;;18.93;100.00
29385;BME280;16367;48.736;9.218;2023-09-18T06:51:45;-23762.47;;;18.87;100.00
29385;BME280;16367;48.736;9.218;2023-09-18T06:53:49;-23764.38;;;18.93;100.00
29385;BME280;16367;48.736;9.218;2023-09-18T06:55:52;-23762.94;;;18.88;100.00
29385;BME280;16367;48.736;9.218;2023-09-18T06:57:55;-23762.63;;;18.87;100.00
29385;BME280;16367;48.736;9.218;2023-09-18T06:59:58;-23762.16;;;18.86;100.00
29385;BME280;16367;48.736;9.218;2023-09-18T07:02:00;-23761.53;;;18.84;100.00
29385;BME280;16367;48.736;9.218;2023-09-18T07:04:03;-23763.75;;;18.91;100.00
29385;BME280;16367;48.736;9.218;2023-09-18T07:06:06;-23761.53;;;18.84;100.00
29385;BME280;16367;48.736;9.218;2023-09-18T07:08:09;-23759.97;;;18.79;100.00
29385;BME280;16367;48.736;9.218;2023-09-18T07:10:15;-23764.50;;;18.93;100.00
29385;BME280;16367;48.736;9.218;2023-09-18T07:12:18;-23761.69;;;18.84;100.00
29385;BME280;16367;48.736;9.218;2023-09-18T07:14:21;-23763.41;;;18.90;100.00
29385;BME280;16367;48.736;9.218;2023-09-18T07:16:25;-23765.94;;;18.98;100.00
29385;BME280;16367;48.736;9.218;2023-09-18T07:18:28;-23767.66;;;19.03;100.00
29385;BME280;16367;48.736;9.218;2023-09-18T07:20:30;-23770.16;;;19.11;100.00
29385;BME280;16367;48.736;9.218;2023-09-18T07:22:34;-23772.06;;;19.17;100.00
29385;BME280;16367;48.736;9.218;2023-09-18T07:24:36;-23772.53;;;19.19;100.00
29385;BME280;16367;48.736;9.218;2023-09-18T07:26:47;-23774.56;;;19.25;100.00
29385;BME280;16367;48.736;9.218;2023-09-18T07:28:50;-23776.47;;;19.31;100.00
29385;BME280;16367;48.736;9.218;2023-09-18T07:30:53;-23776.78;;;19.32;100.00
29385;BME280;16367;48.736;9.218;2023-09-18T07:32:56;-23775.34;;;19.28;100.00
29385;BME280;16367;48.736;9.218;2023-09-18T07:34:59;-23776.78;;;19.32;100.00
29385;BME280;16367;48.736;9.218;2023-09-18T07:37:02;-23780.38;;;19.44;100.00
29385;BME280;16367;48.736;9.218;2023-09-18T07:39:05;-23782.28;;;19.50;100.00
29385;BME280;16367;48.736;9.218;2023-09-18T07:41:08;-23779.44;;;19.41;100.00
29385;BME280;16367;48.736;9.218;2023-09-18T07:43:12;-23780.88;;;19.46;100.00
29385;BME280;16367;48.736;9.218;2023-09-18T07:45:16;-23782.91;;;19.52;100.00
29385;BME280;16367;48.736;9.218;2023-09-18T07:47:19;-23785.41;;;19.60;100.00
29385;BME280;16367;48.736;9.218;2023-09-18T07:49:22;-23784.16;;;19.56;100.00
29385;BME280;16367;48.736;9.218;2023-09-18T07:51:25;-23788.09;;;19.69;100.00
29385;BME280;16367;48.736;9.218;2023-09-18T07:53:28;-23789.34;;;19.73;100.00
29385;BME280;16367;48.736;9.218;2023-09-18T07:55:30;-23793.88;;;19.87;100.00
29385;BME280;16367;48.736;9.218;2023-09-18T07:57:33;-23798.59;;;20.02;100.00
29385;BME280;16367;48.736;9.218;2023-09-18T07:59:38;-23795.94;;;19.94;100.00
29385;BME280;16367;48.736;9.218;2023-09-18T08:01:41;-23802.53;;;20.15;100.00
29385;BME280;16367;48.736;9.218;2023-09-18T08:03:44;-23801.09;;;20.11;100.00
29385;BME280;16367;48.736;9.218;2023-09-18T08:05:49;-23797.19;;;19.98;100.00
29385;BME280;16367;48.736;9.218;2023-09-18T08:07:52;-23799.84;;;20.06;100.00
29385;BME280;16367;48.736;9.218;2023-09-18T08:09:57;-23798.28;;;20.01;99.19
29385;BME280;16367;48.736;9.218;2023-09-18T08:12:00;-23799.84;;;20.06;98.44
29385;BME280;16367;48.736;9.218;2023-09-18T08:14:02;-23794.84;;;19.90;98.87
29385;BME280;16367;48.736;9.218;2023-09-18T08:16:06;-23797.81;;;20.00;100.00
29385;BME280;16367;48.736;9.218;2023-09-18T08:18:09;-23800.00;;;20.07;98.78
29385;BME280;16367;48.736;9.218;2023-09-18T08:20:12;-23794.66;;;19.90;100.00
29385;BME280;16367;48.736;9.218;2023-09-18T08:22:17;-23794.19;;;19.88;99.26
29385;BME280;16367;48.736;9.218;2023-09-18T08:24:20;-23794.66;;;19.90;100.00
29385;BME280;16367;48.736;9.218;2023-09-18T08:26:22;-23788.56;;;19.70;100.00
29385;BME280;16367;48.736;9.218;2023-09-18T08:28:25;-23787.28;;;19.66;100.00
29385;BME280;16367;48.736;9.218;2023-09-18T08:30:27;-23786.34;;;19.63;100.00
29385;BME280;16367;48.736;9.218;2023-09-18T08:32:32;-23784.16;;;19.56;100.00
29385;BME280;16367;48.736;9.218;2023-09-18T08:34:35;-23781.97;;;19.49;100.00
29385;BME280;16367;48.736;9.218;2023-09-18T08:36:38;-23779.91;;;19.43;100.00
29385;BME280;16367;48.736;9.218;2023-09-18T08:38:41;-23780.06;;;19.43;100.00
29385;BME280;16367;48.736;9.218;2023-09-18T08:40:45;-23777.72;;;19.36;100.00
29385;BME280;16367;48.736;9.218;2023-09-18T08:42:47;-23773.78;;;19.23;100.00
29385;BME280;16367;48.736;9.218;2023-09-18T08:44:57;-23775.19;;;19.27;100.00
29385;BME280;16367;48.736;9.218;2023-09-18T08:47:01;-23774.41;;;19.25;100.00
29385;BME280;16367;48.736;9.218;2023-09-18T08:49:07;-23767.97;;;19.04;100.00
29385;BME280;16367;48.736;9.218;2023-09-18T08:51:11;-23771.91;;;19.17;100.00
29385;BME280;16367;48.736;9.218;2023-09-18T08:53:14;-23762.63;;;18.87;100.00
29385;BME280;16367;48.736;9.218;2023-09-18T08:55:16;-23753.22;;;18.57;100.00
29385;BME280;16367;48.736;9.218;2023-09-18T08:57:19;-23747.22;;;18.38;100.00
29385;BME280;16367;48.736;9.218;2023-09-18T08:59:25;-23740.31;;;18.16;100.00
29385;BME280;16367;48.736;9.218;2023-09-18T09:01:30;-23739.53;;;18.13;100.00
29385;BME280;16367;48.736;9.218;2023-09-18T09:03:33;-23740.47;;;18.16;100.00
29385;BME280;16367;48.736;9.218;2023-09-18T09:05:38;-23736.69;;;18.04;100.00
29385;BME280;16367;48.736;9.218;2023-09-18T09:07:41;-23737.31;;;18.06;100.00
29385;BME280;16367;48.736;9.218;2023-09-18T09:09:44;-23738.25;;;18.09;100.00
29385;BME280;16367;48.736;9.218;2023-09-18T09:11:50;-23735.44;;;18.00;100.00
29385;BME280;16367;48.736;9.218;2023-09-18T09:14:09;-23736.53;;;18.04;100.00
29385;BME280;16367;48.736;9.218;2023-09-18T09:16:18;-23732.59;;;17.91;100.00
29385;BME280;16367;48.736;9.218;2023-09-18T09:18:21;-23732.59;;;17.91;100.00
29385;BME280;16367;48.736;9.218;2023-09-18T09:20:23;-23733.56;;;17.94;100.00
29385;BME280;16367;48.736;9.218;2023-09-18T09:22:28;-23734.97;;;17.99;100.00
29385;BME280;16367;48.736;9.218;2023-09-18T09:24:36;-23735.75;;;18.01;100.00
29385;BME280;16367;48.736;9.218;2023-09-18T09:26:40;-23733.56;;;17.94;100.00
29385;BME280;16367;48.736;9.218;2023-09-18T09:28:43;-23737.94;;;18.08;100.00
29385;BME280;16367;48.736;9.218;2023-09-18T09:30:46;-23740.16;;;18.15;100.00
29385;BME280;16367;48.736;9.218;2023-09-18T09:32:51;-23740.16;;;18.15;100.00
29385;BME280;16367;48.736;9.218;2023-09-18T09:34:57;-23739.84;;;18.14;100.00
29385;BME280;16367;48.736;9.218;2023-09-18T09:37:01;-23736.69;;;18.04;100.00
29385;BME280;16367;48.736;9.218;2023-09-18T09:39:10;-23740.78;;;18.17;100.00
29385;BME280;16367;48.736;9.218;2023-09-18T09:41:16;-23743.13;;;18.25;100.00
29385;BME280;16367;48.736;9.218;2023-09-18T09:43:19;-23739.84;;;18.14;100.00
29385;BME280;16367;48.736;9.218;2023-09-18T09:45:22;-23743.91;;;18.27;100.00
29385;BME280;16367;48.736;9.218;2023-09-18T09:47:25;-23744.72;;;18.30;100.00
29385;BME280;16367;48.736;9.218;2023-09-18T09:49:27;-23743.13;;;18.25;100.00
29385;BME280;16367;48.736;9.218;2023-09-18T09:51:31;-23741.88;;;18.21;100.00
29385;BME280;16367;48.736;9.218;2023-09-18T09:53:43;-23748.31;;;18.41;100.00
29385;BME280;16367;48.736;9.218;2023-09-18T09:55:54;-23749.44;;;18.45;100.00
29385;BME280;16367;48.736;9.218;2023-09-18T09:57:59;-23755.56;;;18.65;100.00
29385;BME280;16367;48.736;9.218;2023-09-18T10:00:05;-23752.56;;;18.55;100.00
29385;BME280;16367;48.736;9.218;2023-09-18T10:02:28;-23765.63;;;18.97;100.00
29385;BME280;16367;48.736;9.218;2023-09-18T10:04:32;-23762.16;;;18.86;100.00
29385;BME280;16367;48.736;9.218;2023-09-18T10:06:37;-23753.38;;;18.57;100.00
29385;BME280;16367;48.736;9.218;2023-09-18T10:08:40;-23748.47;;;18.42;100.00
29385;BME280;16367;48.736;9.218;2023-09-18T10:10:46;-23762.63;;;18.87;100.00
29385;BME280;16367;48.736;9.218;2023-09-18T10:12:51;-23762.63;;;18.87;100.00
29385;BME280;16367;48.736;9.218;2023-09-18T10:14:56;-23757.13;;;18.70;100.00
29385;BME280;16367;48.736;9.218;2023-09-18T10:17:10;-23768.28;;;19.05;100.00
29385;BME280;16367;48.736;9.218;2023-09-18T10:19:21;-23758.25;;;18.73;100.00
29385;BME280;16367;48.736;9.218;2023-09-18T10:21:32;-23759.50;;;18.77;100.00
29385;BME280;16367;48.736;9.218;2023-09-18T10:23:46;-23754.94;;;18.63;100.00
29385;BME280;16367;48.736;9.218;2023-09-18T10:25:59;-23759.50;;;18.77;100.00
29385;BME280;16367;48.736;9.218;2023-09-18T10:28:08;-23747.06;;;18.37;100.00
29385;BME280;16367;48.736;9.218;2023-09-18T10:30:13;-23751.78;;;18.52;100.00
29385;BME280;16367;48.736;9.218;2023-09-18T10:32:19;-23743.59;;;18.26;100.00
29385;BME280;16367;48.736;9.218;2023-09-18T10:34:24;-23744.25;;;18.28;100.00
29385;BME280;16367;48.736;9.218;2023-09-18T10:36:28;-23737.63;;;18.07;100.00
29385;BME280;16367;48.736;9.218;2023-09-18T10:38:35;-23737.16;;;18.06;100.00
29385;BME280;16367;48.736;9.218;2023-09-18T10:40:40;-23736.69;;;18.04;100.00
29385;BME280;16367;48.736;9.218;2023-09-18T10:42:45;-23734.31;;;17.97;100.00